createdAt,value
2023-03-14T00:01:18.827Z,99823.96
2023-03-14T00:03:49.081Z,99821.57
2023-03-14T00:06:18.192Z,99818.14
2023-03-14T00:08:46.714Z,99810.99
2023-03-14T00:11:17.981Z,99801.77
2023-03-14T00:13:51.151Z,99793.61
2023-03-14T00:16:19.572Z,99793.21
2023-03-14T00:18:49.742Z,99786.55
2023-03-14T00:21:18.484Z,99788.55
2023-03-14T00:23:47.136Z,99785.64
2023-03-14T00:26:18.268Z,99781.33
2023-03-14T00:28:47.262Z,99776.77
2023-03-14T00:31:16.758Z,99776.82
2023-03-14T00:33:45.560Z,99776.60
2023-03-14T00:36:17.791Z,99778.98
2023-03-14T00:38:49.223Z,99771.01
2023-03-14T00:41:26.499Z,99766.73
2023-03-14T00:43:55.355Z,99764.83
2023-03-14T00:46:24.310Z,99772.20
2023-03-14T00:48:53.813Z,99768.67
2023-03-14T00:51:22.593Z,99764.52
2023-03-14T00:53:51.845Z,99763.77
2023-03-14T00:56:20.942Z,99760.20
2023-03-14T00:58:57.307Z,99758.84
2023-03-14T01:01:26.044Z,99755.07
2023-03-14T01:03:55.619Z,99753.85
2023-03-14T01:06:27.990Z,99749.08
2023-03-14T01:08:58.689Z,99751.79
2023-03-14T01:11:34.321Z,99756.65
2023-03-14T01:14:03.216Z,99759.90
2023-03-14T01:16:35.413Z,99757.98
2023-03-14T01:19:03.981Z,99765.58
2023-03-14T01:21:35.024Z,99762.21
2023-03-14T01:24:06.671Z,99761.45
2023-03-14T01:26:36.339Z,99759.93
2023-03-14T01:29:06.348Z,99762.43
2023-03-14T01:31:37.630Z,99763.41
2023-03-14T01:34:07.608Z,99764.03
2023-03-14T01:36:38.266Z,99765.55
2023-03-14T01:39:10.046Z,99761.69
2023-03-14T01:41:41.514Z,99758.99
2023-03-14T01:44:14.358Z,99763.41
2023-03-14T01:46:46.805Z,99757.66
2023-03-14T01:49:34.537Z,99754.64
2023-03-14T01:52:12.886Z,99750.23
2023-03-14T01:54:44.226Z,99746.12
2023-03-14T01:57:44.287Z,99743.65
2023-03-14T02:00:23.283Z,99737.91
2023-03-14T02:03:05.972Z,99742.24
2023-03-14T02:05:37.170Z,99743.67
2023-03-14T02:08:49.686Z,99749.66
2023-03-14T02:11:28.408Z,99750.05
2023-03-14T02:14:07.634Z,99752.82
2023-03-14T02:16:36.918Z,99751.80
2023-03-14T02:19:42.875Z,99759.45
2023-03-14T02:22:39.224Z,99765.31
2023-03-14T02:25:18.533Z,99765.11
2023-03-14T02:27:47.224Z,99764.41
2023-03-14T02:30:19.359Z,99763.92
2023-03-14T02:32:50.076Z,99760.61
2023-03-14T02:35:22.390Z,99757.71
2023-03-14T02:37:56.973Z,99753.00
2023-03-14T02:40:27.918Z,99757.08
2023-03-14T02:42:58.545Z,99759.58
2023-03-14T02:45:37.536Z,99763.20
2023-03-14T02:48:09.263Z,99762.55
2023-03-14T02:50:38.622Z,99759.17
2023-03-14T02:53:09.897Z,99763.27
2023-03-14T02:55:41.037Z,99766.56
2023-03-14T02:58:12.781Z,99770.48
2023-03-14T03:00:42.347Z,99766.34
2023-03-14T03:03:11.517Z,99770.30
2023-03-14T03:05:40.275Z,99779.07
2023-03-14T03:08:09.408Z,99780.81
2023-03-14T03:10:38.418Z,99778.73
2023-03-14T03:13:09.601Z,99780.64
2023-03-14T03:15:39.230Z,99773.33
2023-03-14T03:18:08.482Z,99773.50
2023-03-14T03:20:37.481Z,99772.87
2023-03-14T03:23:07.699Z,99772.34
2023-03-14T03:25:35.992Z,99771.86
2023-03-14T03:28:09.292Z,99764.48
2023-03-14T03:30:40.870Z,99758.66
2023-03-14T03:33:13.251Z,99749.86
2023-03-14T03:35:50.221Z,99747.61
2023-03-14T03:38:23.665Z,99741.42
2023-03-14T03:40:56.206Z,99738.75
2023-03-14T03:43:32.577Z,99742.86
2023-03-14T03:46:06.416Z,99743.77
2023-03-14T03:48:42.952Z,99742.98
2023-03-14T03:51:15.650Z,99739.60
2023-03-14T03:53:46.774Z,99741.50
2023-03-14T03:56:18.231Z,99735.44
2023-03-14T03:58:56.024Z,99740.16
2023-03-14T04:01:29.998Z,99737.66
2023-03-14T04:04:03.276Z,99727.41
2023-03-14T04:06:33.269Z,99725.42
2023-03-14T04:09:05.001Z,99719.89
2023-03-14T04:11:45.263Z,99727.00
2023-03-14T04:14:27.775Z,99728.73
2023-03-14T04:17:30.932Z,99733.77
2023-03-14T04:19:59.150Z,99730.10
2023-03-14T04:22:37.726Z,99725.45
2023-03-14T04:25:20.281Z,99718.35
2023-03-14T04:27:56.033Z,99711.97
2023-03-14T04:30:32.266Z,99707.90
2023-03-14T04:33:13.696Z,99703.91
2023-03-14T04:36:00.607Z,99697.63
2023-03-14T04:38:32.700Z,99699.95
2023-03-14T04:41:03.304Z,99695.10
2023-03-14T04:43:36.723Z,99694.70
2023-03-14T04:46:15.646Z,99691.29
2023-03-14T04:48:51.611Z,99691.75
2023-03-14T04:51:20.614Z,99704.36
2023-03-14T04:53:50.951Z,99706.74
2023-03-14T04:56:20.418Z,99701.33
2023-03-14T04:58:48.903Z,99697.60
2023-03-14T05:01:26.167Z,99700.38
2023-03-14T05:04:17.225Z,99701.31
2023-03-14T05:07:01.954Z,99702.67
2023-03-14T05:09:43.841Z,99703.53
2023-03-14T05:12:36.653Z,99708.84
2023-03-14T05:15:29.250Z,99706.48
2023-03-14T05:18:24.195Z,99703.00
2023-03-14T05:21:15.096Z,99699.66
2023-03-14T05:23:56.440Z,99702.88
2023-03-14T05:26:51.277Z,99710.62
2023-03-14T05:29:34.101Z,99711.92
2023-03-14T05:32:34.486Z,99710.85
2023-03-14T05:35:09.972Z,99712.05
2023-03-14T05:37:59.664Z,99719.44
2023-03-14T05:40:47.764Z,99719.09
2023-03-14T05:43:42.614Z,99715.33
2023-03-14T05:46:38.784Z,99715.62
2023-03-14T05:49:41.070Z,99713.20
2023-03-14T05:52:45.763Z,99715.79
2023-03-14T05:55:42.097Z,99722.37
2023-03-14T05:58:39.669Z,99718.69
2023-03-14T06:01:24.227Z,99710.85
2023-03-14T06:04:15.907Z,99707.43
2023-03-14T06:06:44.690Z,99707.12
2023-03-14T06:09:15.396Z,99710.95
2023-03-14T06:11:51.800Z,99712.13
2023-03-14T06:14:21.012Z,99714.59
2023-03-14T06:16:51.990Z,99714.99
2023-03-14T06:19:27.123Z,99714.77
2023-03-14T06:21:55.969Z,99714.25
2023-03-14T06:24:27.725Z,99711.10
2023-03-14T06:27:16.073Z,99713.75
2023-03-14T06:29:57.057Z,99709.75
2023-03-14T06:32:34.983Z,99711.67
2023-03-14T06:35:09.683Z,99713.27
2023-03-14T06:37:40.620Z,99709.41
2023-03-14T06:40:17.356Z,99710.38
2023-03-14T06:43:10.350Z,99700.79
2023-03-14T06:45:41.334Z,99704.15
2023-03-14T06:48:15.745Z,99696.98
2023-03-14T06:50:52.614Z,99695.92
2023-03-14T06:53:27.783Z,99694.29
2023-03-14T06:56:04.156Z,99691.36
2023-03-14T06:58:33.764Z,99685.48
2023-03-14T07:01:09.124Z,99684.98
2023-03-14T07:03:41.835Z,99680.52
2023-03-14T07:06:11.957Z,99676.29
2023-03-14T07:08:42.079Z,99670.67
2023-03-14T07:11:12.205Z,99662.21
2023-03-14T07:13:42.422Z,99662.52
2023-03-14T07:16:14.282Z,99660.48
2023-03-14T07:18:46.172Z,99669.90
2023-03-14T07:21:14.966Z,99674.97
2023-03-14T07:23:45.738Z,99668.13
2023-03-14T07:26:15.609Z,99662.34
2023-03-14T07:28:52.796Z,99665.45
2023-03-14T07:31:27.068Z,99663.70
2023-03-14T07:34:00.114Z,99653.06
2023-03-14T07:36:32.061Z,99668.13
2023-03-14T07:39:03.933Z,99661.95
2023-03-14T07:42:00.053Z,99659.52
2023-03-14T07:44:48.498Z,99649.64
2023-03-14T07:47:17.799Z,99647.57
2023-03-14T07:49:46.287Z,99643.94
2023-03-14T07:52:16.412Z,99633.77
2023-03-14T07:54:46.236Z,99633.14
2023-03-14T07:57:15.566Z,99635.11
2023-03-14T07:59:45.174Z,99639.28
2023-03-14T08:02:17.591Z,99632.35
2023-03-14T08:04:51.254Z,99633.67
2023-03-14T08:07:20.963Z,99638.56
2023-03-14T08:09:51.397Z,99640.44
2023-03-14T08:12:21.311Z,99638.91
2023-03-14T08:14:55.012Z,99636.16
2023-03-14T08:17:24.210Z,99631.42
2023-03-14T08:19:52.896Z,99629.97
2023-03-14T08:22:23.534Z,99632.00
2023-03-14T08:24:58.152Z,99626.74
2023-03-14T08:27:35.822Z,99631.47
2023-03-14T08:30:05.577Z,99624.34
2023-03-14T08:32:43.044Z,99626.73
2023-03-14T08:35:12.256Z,99625.49
2023-03-14T08:37:41.578Z,99625.58
2023-03-14T08:40:11.476Z,99627.06
2023-03-14T08:42:40.656Z,99626.64
2023-03-14T08:45:14.478Z,99628.05
2023-03-14T08:47:44.567Z,99631.83
2023-03-14T08:50:16.273Z,99630.02
2023-03-14T08:52:50.514Z,99625.27
2023-03-14T08:55:20.411Z,99613.44
2023-03-14T08:57:48.889Z,99616.73
2023-03-14T09:00:18.596Z,99616.05
2023-03-14T09:02:50.125Z,99615.35
2023-03-14T09:05:21.534Z,99610.42
2023-03-14T09:07:53.109Z,99616.23
2023-03-14T09:10:21.689Z,99609.86
2023-03-14T09:12:53.140Z,99611.23
2023-03-14T09:15:21.637Z,99616.93
2023-03-14T09:17:50.209Z,99606.69
2023-03-14T09:20:24.674Z,99605.36
2023-03-14T09:23:00.473Z,99608.07
2023-03-14T09:25:33.302Z,99601.31
2023-03-14T09:28:06.068Z,99608.21
2023-03-14T09:30:38.860Z,99605.17
2023-03-14T09:33:07.017Z,99605.13
2023-03-14T09:35:37.039Z,99595.66
2023-03-14T09:38:11.113Z,99594.80
2023-03-14T09:40:39.686Z,99588.35
2023-03-14T09:43:13.420Z,99583.96
2023-03-14T09:45:42.103Z,99589.63
2023-03-14T09:48:19.949Z,99583.14
2023-03-14T09:50:54.850Z,99587.02
2023-03-14T09:53:29.203Z,99584.19
2023-03-14T09:55:59.239Z,99572.20
2023-03-14T09:58:31.524Z,99568.86
2023-03-14T10:01:03.585Z,99570.30
2023-03-14T10:03:36.437Z,99558.72
2023-03-14T10:06:13.522Z,99572.74
2023-03-14T10:08:44.120Z,99559.73
2023-03-14T10:11:17.564Z,99560.66
2023-03-14T10:14:03.256Z,99560.60
2023-03-14T10:16:35.547Z,99556.92
2023-03-14T10:19:16.002Z,99557.23
2023-03-14T10:21:51.841Z,99556.02
2023-03-14T10:24:28.596Z,99550.80
2023-03-14T10:27:06.656Z,99540.69
2023-03-14T10:29:36.957Z,99540.63
2023-03-14T10:32:12.686Z,99527.52
2023-03-14T10:34:41.474Z,99535.17
2023-03-14T10:37:22.559Z,99532.08
2023-03-14T10:39:55.603Z,99529.37
2023-03-14T10:42:37.201Z,99517.11
2023-03-14T10:45:08.746Z,99517.60
2023-03-14T10:47:37.062Z,99520.39
2023-03-14T10:50:26.827Z,99521.77
2023-03-14T10:53:02.539Z,99525.59
2023-03-14T10:55:45.239Z,99523.82
2023-03-14T10:58:43.824Z,99509.21
2023-03-14T11:01:30.846Z,99518.08
2023-03-14T11:04:14.335Z,99512.73
2023-03-14T11:07:06.654Z,99509.36
2023-03-14T11:09:46.196Z,99506.08
2023-03-14T11:12:34.642Z,99498.43
2023-03-14T11:15:26.469Z,99488.11
2023-03-14T11:18:21.694Z,99483.05
2023-03-14T11:21:13.790Z,99480.90
2023-03-14T11:24:04.768Z,99473.88
2023-03-14T11:26:54.612Z,99476.40
2023-03-14T11:29:51.558Z,99469.58
2023-03-14T11:32:31.126Z,99466.63
2023-03-14T11:35:01.115Z,99460.98
2023-03-14T11:37:35.128Z,99460.14
2023-03-14T11:40:37.167Z,99463.85
2023-03-14T11:43:13.959Z,99458.13
2023-03-14T11:45:44.325Z,99458.84
2023-03-14T11:48:13.553Z,99459.38
2023-03-14T11:50:44.104Z,99456.23
2023-03-14T11:53:23.371Z,99451.58
2023-03-14T11:55:56.231Z,99452.31
2023-03-14T11:58:32.980Z,99454.86
2023-03-14T12:01:04.360Z,99449.76
2023-03-14T12:03:47.520Z,99443.05
2023-03-14T12:06:34.906Z,99447.53
2023-03-14T12:09:05.404Z,99453.25
2023-03-14T12:11:42.699Z,99450.84
2023-03-14T12:14:30.065Z,99453.80
2023-03-14T12:17:21.074Z,99442.70
2023-03-14T12:20:01.142Z,99451.56
2023-03-14T12:22:36.287Z,99451.14
2023-03-14T12:25:28.602Z,99449.59
2023-03-14T12:27:58.950Z,99451.27
2023-03-14T12:30:44.407Z,99451.65
2023-03-14T12:33:19.632Z,99444.20
2023-03-14T12:35:52.859Z,99449.72
2023-03-14T12:38:27.501Z,99446.47
2023-03-14T12:41:37.731Z,99444.71
2023-03-14T12:44:43.412Z,99439.53
2023-03-14T12:47:18.329Z,99438.85
2023-03-14T12:49:50.861Z,99432.08
2023-03-14T12:52:23.942Z,99434.35
2023-03-14T12:55:11.778Z,99431.81
2023-03-14T12:57:43.854Z,99429.48
2023-03-14T13:00:31.027Z,99427.64
2023-03-14T13:03:26.475Z,99428.17
2023-03-14T13:06:02.983Z,99430.14
2023-03-14T13:08:40.878Z,99433.99
2023-03-14T13:11:20.389Z,99433.20
2023-03-14T13:13:50.685Z,99429.36
2023-03-14T13:16:22.510Z,99424.46
2023-03-14T13:19:18.312Z,99421.56
2023-03-14T13:21:48.314Z,99409.09
2023-03-14T13:24:23.984Z,99400.58
2023-03-14T13:26:56.645Z,99388.02
2023-03-14T13:29:34.565Z,99383.75
2023-03-14T13:32:18.402Z,99385.44
2023-03-14T13:34:48.823Z,99380.86
2023-03-14T13:37:24.983Z,99379.11
2023-03-14T13:39:57.824Z,99379.95
2023-03-14T13:42:28.748Z,99380.71
2023-03-14T13:45:01.194Z,99377.67
2023-03-14T13:47:33.356Z,99374.80
2023-03-14T13:50:03.673Z,99370.55
2023-03-14T13:52:36.949Z,99372.16
2023-03-14T13:55:14.816Z,99363.14
2023-03-14T13:57:47.272Z,99353.41
2023-03-14T14:00:23.501Z,99349.93
2023-03-14T14:02:53.114Z,99348.54
2023-03-14T14:05:22.796Z,99344.45
2023-03-14T14:07:53.507Z,99349.39
2023-03-14T14:10:22.451Z,99341.76
2023-03-14T14:13:02.604Z,99340.80
2023-03-14T14:15:36.568Z,99341.43
2023-03-14T14:18:06.347Z,99337.75
2023-03-14T14:20:47.834Z,99340.10
2023-03-14T14:23:37.419Z,99336.75
2023-03-14T14:27:40.464Z,99336.19
2023-03-14T14:30:23.461Z,99327.77
2023-03-14T14:32:53.290Z,99327.44
2023-03-14T14:35:26.981Z,99326.87
2023-03-14T14:37:55.878Z,99322.96
2023-03-14T14:40:26.264Z,99316.80
2023-03-14T14:42:54.837Z,99306.23
2023-03-14T14:45:26.381Z,99312.38
2023-03-14T14:47:56.783Z,99318.27
2023-03-14T14:50:38.593Z,99311.48
2023-03-14T14:53:27.368Z,99300.13
2023-03-14T14:56:02.597Z,99296.96
2023-03-14T14:58:35.885Z,99297.01
2023-03-14T15:01:17.238Z,99292.76
2023-03-14T15:03:50.447Z,99299.80
2023-03-14T15:06:19.244Z,99301.68
2023-03-14T15:08:49.059Z,99306.39
2023-03-14T15:11:21.952Z,99306.08
2023-03-14T15:13:54.131Z,99319.33
2023-03-14T15:16:26.756Z,99316.23
2023-03-14T15:21:49.338Z,99321.59
2023-03-14T15:24:18.045Z,99326.63
2023-03-14T15:26:47.484Z,99324.69
2023-03-14T15:29:15.929Z,99328.42
2023-03-14T15:32:04.492Z,99335.55
2023-03-14T15:34:34.192Z,99339.83
2023-03-14T15:37:08.263Z,99338.95
2023-03-14T15:39:36.687Z,99331.95
2023-03-14T15:42:04.961Z,99328.94
2023-03-14T15:44:33.356Z,99335.17
2023-03-14T15:47:02.433Z,99337.96
2023-03-14T15:49:31.325Z,99344.14
2023-03-14T15:52:00.831Z,99346.65
2023-03-14T15:54:29.621Z,99345.58
2023-03-14T15:56:58.309Z,99341.66
2023-03-14T15:59:27.806Z,99342.24
2023-03-14T16:01:55.990Z,99338.64
2023-03-14T16:04:25.520Z,99332.46
2023-03-14T16:06:54.278Z,99327.79
2023-03-14T16:09:24.908Z,99320.02
2023-03-14T16:11:55.004Z,99320.08
2023-03-14T16:14:24.846Z,99316.68
2023-03-14T16:16:54.361Z,99313.15
2023-03-14T16:19:23.859Z,99308.59
2023-03-14T16:21:52.379Z,99309.95
2023-03-14T16:24:26.859Z,99310.33
2023-03-14T16:26:57.085Z,99310.08
2023-03-14T16:29:25.975Z,99302.52
2023-03-14T16:31:56.180Z,99297.16
2023-03-14T16:34:26.114Z,99294.88
2023-03-14T16:36:56.132Z,99297.45
2023-03-14T16:39:27.577Z,99293.41
2023-03-14T16:41:59.050Z,99293.71
2023-03-14T16:44:29.457Z,99285.02
2023-03-14T16:46:58.756Z,99290.64
2023-03-14T16:49:28.185Z,99291.67
2023-03-14T16:51:57.049Z,99286.95
2023-03-14T16:54:28.194Z,99290.20
2023-03-14T16:56:57.597Z,99286.56
2023-03-14T16:59:27.213Z,99291.68
2023-03-14T17:01:56.878Z,99294.84
2023-03-14T17:04:25.779Z,99294.20
2023-03-14T17:06:58.588Z,99292.39
2023-03-14T17:09:28.915Z,99292.73
2023-03-14T17:11:59.990Z,99290.02
2023-03-14T17:14:30.488Z,99292.03
2023-03-14T17:16:59.094Z,99288.95
2023-03-14T17:19:29.031Z,99292.73
2023-03-14T17:22:21.173Z,99293.72
2023-03-14T17:25:09.979Z,99293.03
2023-03-14T17:27:46.101Z,99290.54
2023-03-14T17:30:15.676Z,99292.50
2023-03-14T17:32:47.353Z,99286.33
2023-03-14T17:35:16.400Z,99292.25
2023-03-14T17:37:45.225Z,99291.92
2023-03-14T17:40:14.289Z,99302.05
2023-03-14T17:42:43.483Z,99297.45
2023-03-14T17:45:11.874Z,99305.66
2023-03-14T17:47:41.268Z,99307.80
2023-03-14T17:50:11.059Z,99301.03
2023-03-14T17:52:40.272Z,99309.66
2023-03-14T17:55:09.993Z,99304.95
2023-03-14T17:57:40.434Z,99308.90
2023-03-14T18:00:10.595Z,99313.79
2023-03-14T18:02:41.671Z,99317.17
2023-03-14T18:05:10.983Z,99322.05
2023-03-14T18:07:41.008Z,99317.65
2023-03-14T18:10:14.697Z,99316.37
2023-03-14T18:12:46.260Z,99308.83
2023-03-14T18:15:15.468Z,99308.39
2023-03-14T18:17:46.405Z,99304.87
2023-03-14T18:20:27.167Z,99297.45
2023-03-14T18:22:56.271Z,99293.20
2023-03-14T18:25:28.432Z,99291.77
2023-03-14T18:27:57.120Z,99295.42
2023-03-14T18:30:26.418Z,99287.84
2023-03-14T18:32:55.656Z,99297.39
2023-03-14T18:35:24.408Z,99295.64
2023-03-14T18:37:52.888Z,99293.37
2023-03-14T18:40:24.548Z,99293.27
2023-03-14T18:43:05.519Z,99288.95
2023-03-14T18:45:35.340Z,99290.52
2023-03-14T18:48:04.633Z,99300.20
2023-03-14T18:50:33.701Z,99301.40
2023-03-14T18:53:05.262Z,99300.51
2023-03-14T18:55:35.167Z,99302.70
2023-03-14T18:58:04.000Z,99294.94
2023-03-14T19:00:37.510Z,99302.98
2023-03-14T19:03:27.740Z,99300.61
2023-03-14T19:05:56.905Z,99311.91
2023-03-14T19:08:30.345Z,99306.58
2023-03-14T19:11:01.546Z,99309.75
2023-03-14T19:13:32.791Z,99315.45
2023-03-14T19:16:03.953Z,99317.00
2023-03-14T19:18:33.923Z,99318.05
2023-03-14T19:21:09.606Z,99317.52
2023-03-14T19:23:40.039Z,99321.33
2023-03-14T19:26:12.001Z,99327.87
2023-03-14T19:28:42.215Z,99329.92
2023-03-14T19:31:12.426Z,99321.31
2023-03-14T19:33:45.235Z,99332.17
2023-03-14T19:36:35.356Z,99333.33
2023-03-14T19:39:09.323Z,99335.08
2023-03-14T19:41:39.419Z,99336.27
2023-03-14T19:44:08.223Z,99336.76
2023-03-14T19:46:41.680Z,99335.24
2023-03-14T19:49:12.163Z,99334.83
2023-03-14T19:51:41.544Z,99331.95
2023-03-14T19:54:11.277Z,99325.18
2023-03-14T19:56:41.551Z,99320.45
2023-03-14T19:59:11.415Z,99312.73
2023-03-14T20:01:40.042Z,99323.82
2023-03-14T20:04:16.022Z,99311.42
2023-03-14T20:06:46.382Z,99312.30
2023-03-14T20:09:15.066Z,99309.23
2023-03-14T20:11:44.681Z,99312.32
2023-03-14T20:14:16.542Z,99314.29
2023-03-14T20:16:45.065Z,99306.93
2023-03-14T20:19:18.427Z,99310.83
2023-03-14T20:21:47.312Z,99307.44
2023-03-14T20:24:15.943Z,99311.08
2023-03-14T20:26:44.483Z,99309.16
2023-03-14T20:29:15.738Z,99304.71
2023-03-14T20:31:47.590Z,99313.30
2023-03-14T20:34:16.085Z,99311.52
2023-03-14T20:36:53.074Z,99310.45
2023-03-14T20:39:21.845Z,99311.44
2023-03-14T20:41:50.843Z,99312.61
2023-03-14T20:44:19.640Z,99312.35
2023-03-14T20:46:51.606Z,99313.73
2023-03-14T20:49:20.496Z,99318.63
2023-03-14T20:51:48.968Z,99315.61
2023-03-14T20:54:21.122Z,99318.81
2023-03-14T20:56:51.052Z,99317.14
2023-03-14T20:59:20.059Z,99320.56
2023-03-14T21:04:36.580Z,99319.78
2023-03-14T21:07:07.289Z,99325.39
2023-03-14T21:09:36.764Z,99324.86
2023-03-14T21:12:05.999Z,99326.04
2023-03-14T21:14:36.831Z,99327.58
2023-03-14T21:17:07.052Z,99332.42
2023-03-14T21:19:35.533Z,99338.42
2023-03-14T21:22:07.089Z,99339.26
2023-03-14T21:24:36.488Z,99345.63
2023-03-14T21:27:06.922Z,99350.41
2023-03-14T21:29:37.461Z,99351.20
2023-03-14T21:32:06.369Z,99354.97
2023-03-14T21:34:41.015Z,99356.13
2023-03-14T21:37:17.996Z,99356.33
2023-03-14T21:39:46.473Z,99359.24
2023-03-14T21:42:15.162Z,99357.57
2023-03-14T21:44:51.839Z,99366.55
2023-03-14T21:47:23.958Z,99363.26
2023-03-14T21:49:54.436Z,99364.55
2023-03-14T21:52:24.970Z,99366.14
2023-03-14T21:54:54.186Z,99366.64
2023-03-14T21:57:29.962Z,99365.02
2023-03-14T21:59:58.376Z,99363.55
2023-03-14T22:02:26.730Z,99354.88
2023-03-14T22:04:58.187Z,99360.75
2023-03-14T22:07:26.977Z,99354.95
2023-03-14T22:09:56.094Z,99357.30
2023-03-14T22:12:28.238Z,99351.77
2023-03-14T22:14:58.662Z,99348.11
2023-03-14T22:17:27.457Z,99344.30
2023-03-14T22:19:56.021Z,99345.95
2023-03-14T22:22:24.929Z,99340.40
2023-03-14T22:24:56.398Z,99345.39
2023-03-14T22:27:24.755Z,99345.02
2023-03-14T22:29:52.842Z,99343.31
2023-03-14T22:32:23.279Z,99344.02
2023-03-14T22:34:52.457Z,99349.95
2023-03-14T22:37:23.295Z,99347.05
2023-03-14T22:39:52.595Z,99343.93
2023-03-14T22:42:20.968Z,99343.16
2023-03-14T22:44:52.009Z,99344.49
2023-03-14T22:47:20.598Z,99349.95
2023-03-14T22:49:50.211Z,99353.88
2023-03-14T22:52:35.145Z,99355.77
2023-03-14T22:55:03.444Z,99344.86
2023-03-14T22:57:31.929Z,99349.21
2023-03-14T23:00:00.611Z,99342.72
2023-03-14T23:02:29.211Z,99339.15
2023-03-14T23:04:57.474Z,99337.65
2023-03-14T23:07:25.646Z,99336.94
2023-03-14T23:09:54.412Z,99339.09
2023-03-14T23:12:22.820Z,99333.35
2023-03-14T23:14:50.893Z,99331.89
2023-03-14T23:17:19.402Z,99333.48
2023-03-14T23:19:48.466Z,99333.73
2023-03-14T23:22:18.388Z,99328.45
2023-03-14T23:24:49.024Z,99326.11
2023-03-14T23:27:17.415Z,99325.45
2023-03-14T23:29:47.728Z,99322.92
2023-03-14T23:32:16.225Z,99321.39
2023-03-14T23:34:49.297Z,99319.38
2023-03-14T23:37:18.908Z,99313.98
2023-03-14T23:39:48.325Z,99314.52
2023-03-14T23:42:16.532Z,99310.45
2023-03-14T23:44:45.273Z,99313.59
2023-03-14T23:47:13.859Z,99305.91
2023-03-14T23:49:42.134Z,99303.56
2023-03-14T23:52:11.537Z,99306.19
2023-03-14T23:54:42.271Z,99300.48
2023-03-14T23:57:10.454Z,99297.95
2023-03-14T23:59:39.538Z,99297.26
